createdAt,value
2023-03-31T00:06:07.518Z,2.25
2023-03-31T00:16:10.632Z,2.17
2023-03-31T00:26:12.202Z,1.70
2023-03-31T00:36:21.373Z,1.50
2023-03-31T00:46:37.174Z,1.50
2023-03-31T00:56:41.831Z,1.70
2023-03-31T01:07:00.972Z,1.65
2023-03-31T01:17:02.904Z,1.93
2023-03-31T01:27:16.738Z,1.87
2023-03-31T01:37:50.781Z,1.90
2023-03-31T01:47:58.871Z,2.60
2023-03-31T01:58:07.514Z,1.93
2023-03-31T02:08:16.982Z,1.87
2023-03-31T02:18:26.145Z,2.03
2023-03-31T02:28:28.689Z,1.40
2023-03-31T02:38:36.932Z,1.60
2023-03-31T02:48:48.124Z,1.88
2023-03-31T02:59:06.655Z,1.80
2023-03-31T03:09:26.384Z,1.80
2023-03-31T03:19:28.040Z,2.42
2023-03-31T03:29:29.498Z,2.95
2023-03-31T03:39:31.076Z,2.80
2023-03-31T03:49:32.509Z,2.20
2023-03-31T03:59:33.978Z,1.88
2023-03-31T04:09:35.436Z,1.97
2023-03-31T04:19:38.538Z,1.90
2023-03-31T04:29:39.912Z,1.90
2023-03-31T04:39:41.278Z,2.33
2023-03-31T04:49:42.654Z,2.53
2023-03-31T04:59:44.158Z,2.05
2023-03-31T05:09:45.646Z,1.70
2023-03-31T05:19:47.029Z,1.53
2023-03-31T05:29:48.450Z,1.93
2023-03-31T05:39:50.484Z,1.77
2023-03-31T05:49:51.974Z,1.70
2023-03-31T05:59:53.581Z,1.80
2023-03-31T06:09:55.153Z,1.52
2023-03-31T06:19:56.618Z,1.20
2023-03-31T06:29:58.268Z,1.50
2023-03-31T06:39:59.723Z,1.50
2023-03-31T06:50:01.385Z,2.05
2023-03-31T07:00:05.854Z,1.70
2023-03-31T07:10:07.737Z,1.90
2023-03-31T07:20:15.097Z,2.00
2023-03-31T07:30:19.263Z,2.37
2023-03-31T07:40:24.419Z,1.90
2023-03-31T07:50:25.898Z,2.03
2023-03-31T08:00:27.458Z,1.73
2023-03-31T08:10:29.062Z,1.97
2023-03-31T08:20:30.566Z,1.92
2023-03-31T08:30:32.089Z,2.38
2023-03-31T08:40:33.872Z,2.33
2023-03-31T08:50:42.805Z,2.43
2023-03-31T09:00:56.604Z,2.30
2023-03-31T09:11:14.692Z,3.00
2023-03-31T09:21:27.751Z,3.27
2023-03-31T09:31:29.850Z,2.40
2023-03-31T09:41:33.037Z,3.13
2023-03-31T09:51:37.876Z,2.20
2023-03-31T10:01:39.292Z,2.00
2023-03-31T10:11:53.037Z,2.25
2023-03-31T10:22:00.706Z,2.60
2023-03-31T10:32:23.530Z,2.30
2023-03-31T10:42:25.547Z,3.78
2023-03-31T10:52:27.572Z,2.37
2023-03-31T11:03:14.241Z,1.50
2023-03-31T11:13:29.153Z,2.55
2023-03-31T11:23:42.937Z,1.13
2023-03-31T11:33:56.097Z,1.10
2023-03-31T11:44:18.520Z,1.20
2023-03-31T11:54:32.565Z,0.82
2023-03-31T12:04:39.779Z,0.90
2023-03-31T12:14:50.232Z,1.40
2023-03-31T12:24:52.986Z,1.00
2023-03-31T12:35:06.792Z,1.20
2023-03-31T12:45:08.344Z,1.10
2023-03-31T12:55:18.510Z,1.15
2023-03-31T13:05:38.274Z,1.20
2023-03-31T13:15:40.096Z,1.10
2023-03-31T13:25:49.678Z,1.38
2023-03-31T13:36:22.408Z,1.45
2023-03-31T13:47:25.505Z,1.30
2023-03-31T13:57:53.172Z,1.13
2023-03-31T14:07:58.789Z,1.25
2023-03-31T14:18:00.420Z,1.03
2023-03-31T14:28:23.500Z,0.87
2023-03-31T14:38:29.739Z,0.70
2023-03-31T14:48:45.024Z,1.10
2023-03-31T14:58:52.666Z,1.70
2023-03-31T15:08:57.806Z,1.17
2023-03-31T15:19:04.786Z,0.98
2023-03-31T15:29:15.500Z,1.67
2023-03-31T15:39:17.297Z,1.00
2023-03-31T15:49:24.937Z,0.90
2023-03-31T15:59:41.835Z,1.13
2023-03-31T16:09:57.689Z,1.30
2023-03-31T16:20:08.341Z,0.82
2023-03-31T16:30:22.426Z,0.50
2023-03-31T16:40:24.015Z,0.70
2023-03-31T16:50:25.412Z,1.00
2023-03-31T17:00:27.012Z,1.20
2023-03-31T17:10:28.525Z,1.30
2023-03-31T17:20:30.946Z,1.00
2023-03-31T17:30:35.581Z,1.10
2023-03-31T17:40:37.568Z,1.20
2023-03-31T17:50:39.814Z,1.10
2023-03-31T18:00:41.761Z,1.05
2023-03-31T18:10:44.080Z,1.40
2023-03-31T18:20:45.798Z,1.40
2023-03-31T18:30:47.484Z,1.42
2023-03-31T18:40:50.826Z,1.33
2023-03-31T18:50:53.915Z,3.00
2023-03-31T19:00:56.662Z,2.67
2023-03-31T19:11:14.630Z,1.95
2023-03-31T19:21:16.058Z,1.53
2023-03-31T19:31:17.462Z,1.30
2023-03-31T19:41:18.835Z,1.17
2023-03-31T19:51:20.277Z,1.03
2023-03-31T20:01:27.427Z,1.50
2023-03-31T20:11:32.078Z,1.65
2023-03-31T20:21:36.322Z,1.63
2023-03-31T20:31:39.837Z,1.43
2023-03-31T20:41:41.963Z,1.80
2023-03-31T20:51:45.203Z,1.40
2023-03-31T21:01:49.257Z,1.30
2023-03-31T21:11:51.458Z,0.97
2023-03-31T21:21:52.990Z,1.73
2023-03-31T21:31:54.400Z,1.30
2023-03-31T21:41:55.873Z,1.10
2023-03-31T21:51:57.325Z,1.65
2023-03-31T22:01:59.113Z,1.50
2023-03-31T22:12:00.871Z,2.43
2023-03-31T22:22:02.324Z,1.13
2023-03-31T22:32:04.265Z,1.08
2023-03-31T22:42:06.480Z,1.60
2023-03-31T22:52:07.862Z,1.70
2023-03-31T23:02:09.239Z,1.80
2023-03-31T23:12:10.859Z,1.10
2023-03-31T23:22:12.230Z,0.80
2023-03-31T23:32:14.192Z,1.58
2023-03-31T23:42:19.665Z,1.25
2023-03-31T23:52:21.349Z,1.33
